Terminal Aerodrome Forecast
Issued by NWS Jacksonville, FL

Home | Current Version | Previous Version | Text Only | Print | Product List | Glossary On
Versions: 1 2 3 4 5 6 7 8 9 10 11 12 13 14
769
FTUS42 KJAX 242320
TAFGNV
TAF
KGNV 242320Z 2500/2524 26008KT P6SM SCT040 SCT080
     FM250900 00000KT 6SM BR SCT008
     FM251500 24006KT P6SM VCSH SCT030
     FM251800 25008KT P6SM VCTS SCT040CB=

USA.gov is the U.S. government's official web portal to all federal, state and local government web resources and services.